Terminal Aerodrome Forecast
Issued by NWS Mt. Holly, NJ

Home | Current Version | Previous Version | Text Only | Print | Product List | Glossary On
Versions: 1 2 3 4 5 6 7 8 9 10 11 12 13 14 15 16 17 18 19 20 21 22 23 24 25 26
378
FTUS41 KPHI 010526
TAFACY
TAF
KACY 010526Z 0106/0206 08006KT 1/2SM FG OVC002
     FM011200 13006KT 2SM BR OVC006
     FM011400 19010KT P6SM BKN012
     FM011500 22012G20KT P6SM BKN025
     FM011600 19014G24KT P6SM SCT045
     FM020500 20014G22KT P6SM SHRA OVC045=

USA.gov is the U.S. government's official web portal to all federal, state and local government web resources and services.